createdAt,value
2019-04-21T00:01:08.053Z,77.27
2019-04-21T00:03:41.070Z,77.51
2019-04-21T00:06:22.384Z,77.31
2019-04-21T00:08:59.293Z,77.54
2019-04-21T00:11:29.906Z,77.95
2019-04-21T00:13:47.012Z,77.26
2019-04-21T00:16:10.862Z,76.83
2019-04-21T00:19:19.063Z,77.06
2019-04-21T00:21:49.491Z,77.17
2019-04-21T00:24:25.105Z,77.19
2019-04-21T00:27:02.501Z,78.06
2019-04-21T00:29:41.003Z,77.75
2019-04-21T00:32:03.001Z,78.07
2019-04-21T00:34:17.645Z,79.08
2019-04-21T00:36:57.284Z,80.04
2019-04-21T00:39:43.661Z,81.41
2019-04-21T00:42:05.496Z,79.15
2019-04-21T00:44:30.805Z,77.97
2019-04-21T00:47:05.425Z,78.74
2019-04-21T00:49:35.751Z,79.10
2019-04-21T00:52:49.187Z,79.10
2019-04-21T00:55:18.788Z,79.28
2019-04-21T00:57:38.845Z,79.16
2019-04-21T01:00:07.276Z,79.37
2019-04-21T01:02:41.328Z,79.41
2019-04-21T01:05:15.126Z,79.09
2019-04-21T01:07:35.815Z,79.11
2019-04-21T01:10:02.356Z,80.32
2019-04-21T01:12:38.007Z,80.32
2019-04-21T01:15:15.674Z,79.67
2019-04-21T01:17:40.868Z,78.79
2019-04-21T01:20:02.842Z,79.10
2019-04-21T01:22:19.294Z,79.32
2019-04-21T01:24:57.864Z,80.26
2019-04-21T01:27:39.854Z,80.26
2019-04-21T01:30:14.318Z,80.89
2019-04-21T01:32:46.876Z,81.24
2019-04-21T01:35:08.884Z,80.76
2019-04-21T01:37:44.127Z,80.76
2019-04-21T01:40:18.406Z,81.05
2019-04-21T01:42:48.141Z,81.05
2019-04-21T01:45:09.494Z,81.29
2019-04-21T01:47:44.684Z,81.89
2019-04-21T01:50:02.828Z,81.15
2019-04-21T01:52:49.897Z,80.83
2019-04-21T01:55:20.988Z,80.64
2019-04-21T01:58:15.324Z,80.84
2019-04-21T02:00:51.959Z,81.27
2019-04-21T02:06:07.670Z,81.81
2019-04-21T02:08:27.562Z,82.21
2019-04-21T02:11:07.550Z,81.34
2019-04-21T02:13:27.945Z,82.09
2019-04-21T02:16:02.054Z,82.09
2019-04-21T02:18:27.309Z,81.24
2019-04-21T02:20:50.107Z,82.21
2019-04-21T02:23:38.519Z,83.09
2019-04-21T02:26:03.860Z,83.09
2019-04-21T02:28:42.807Z,82.14
2019-04-21T02:31:20.608Z,82.31
2019-04-21T02:33:55.770Z,82.71
2019-04-21T02:39:00.271Z,82.35
2019-04-21T02:41:12.839Z,82.35
2019-04-21T02:46:23.738Z,81.71
2019-04-21T02:51:21.847Z,81.99
2019-04-21T02:54:32.362Z,80.61
2019-04-21T02:56:29.763Z,82.03
2019-04-21T02:59:03.131Z,82.10
2019-04-21T03:01:46.330Z,81.80
2019-04-21T03:04:30.238Z,82.87
2019-04-21T03:07:11.488Z,83.49
2019-04-21T03:09:35.823Z,83.25
2019-04-21T03:14:50.234Z,82.98
2019-04-21T03:17:05.728Z,84.80
2019-04-21T03:19:44.765Z,83.11
2019-04-21T03:22:14.194Z,83.37
2019-04-21T03:24:53.989Z,83.17
2019-04-21T03:27:18.179Z,83.32
2019-04-21T03:29:48.276Z,83.33
2019-04-21T03:35:14.959Z,83.49
2019-04-21T03:37:16.771Z,83.49
2019-04-21T03:39:48.578Z,84.06
2019-04-21T03:44:46.158Z,83.55
2019-04-21T03:52:20.112Z,83.03
2019-04-21T03:55:48.828Z,82.99
2019-04-21T03:58:04.643Z,83.07
2019-04-21T04:00:42.482Z,82.49
2019-04-21T04:03:42.197Z,83.29
2019-04-21T04:14:04.099Z,83.58
2019-04-21T04:16:37.885Z,83.67
2019-04-21T04:18:57.725Z,83.54
2019-04-21T04:24:22.625Z,83.83
2019-04-21T04:26:47.190Z,84.23
2019-04-21T04:29:12.333Z,84.16
2019-04-21T04:31:37.731Z,84.64
2019-04-21T04:34:18.769Z,85.56
2019-04-21T04:49:47.940Z,84.16
2019-04-21T04:52:31.406Z,84.04
2019-04-21T04:57:23.564Z,83.34
2019-04-21T04:59:47.796Z,83.40
2019-04-21T05:02:26.496Z,83.56
2019-04-21T05:04:59.020Z,83.36
2019-04-21T05:07:15.117Z,84.03
2019-04-21T05:09:46.603Z,84.03
2019-04-21T05:12:08.953Z,83.30
2019-04-21T05:14:46.733Z,83.50
2019-04-21T05:17:24.914Z,82.43
2019-04-21T05:20:05.908Z,82.10
2019-04-21T05:24:39.036Z,81.65
2019-04-21T05:27:07.492Z,82.37
2019-04-21T05:29:53.582Z,81.96
2019-04-21T05:32:28.285Z,81.54
2019-04-21T05:35:08.026Z,81.37
2019-04-21T05:37:47.401Z,80.82
2019-04-21T05:40:24.886Z,78.68
2019-04-21T05:42:59.831Z,78.68
2019-04-21T05:45:50.039Z,77.78
2019-04-21T05:48:24.212Z,77.78
2019-04-21T05:50:44.146Z,77.23
2019-04-21T05:53:25.353Z,76.42
2019-04-21T05:55:58.649Z,76.20
2019-04-21T05:58:25.914Z,75.56
2019-04-21T06:03:30.744Z,73.41
2019-04-21T06:08:31.904Z,72.77
2019-04-21T06:11:00.209Z,71.80
2019-04-21T06:16:04.015Z,70.62
2019-04-21T06:18:42.090Z,69.80
2019-04-21T06:21:05.706Z,69.41
2019-04-21T06:23:35.924Z,69.33
2019-04-21T06:26:19.849Z,68.83
2019-04-21T06:28:41.687Z,67.99
2019-04-21T06:33:41.743Z,61.26
2019-04-21T06:39:04.622Z,55.58
2019-04-21T06:41:31.513Z,53.43
2019-04-21T06:44:01.801Z,51.38
2019-04-21T06:51:45.530Z,51.03
2019-04-21T06:54:03.384Z,50.90
2019-04-21T06:56:39.126Z,51.76
2019-04-21T06:59:00.682Z,51.85
2019-04-21T07:01:38.995Z,52.50
2019-04-21T07:04:11.825Z,52.06
2019-04-21T07:06:45.733Z,51.48
2019-04-21T07:09:15.866Z,50.71
2019-04-21T07:11:36.825Z,51.04
2019-04-21T07:16:45.236Z,51.58
2019-04-21T07:19:23.467Z,52.43
2019-04-21T07:21:38.299Z,51.95
2019-04-21T07:24:15.766Z,51.53
2019-04-21T07:26:47.637Z,51.29
2019-04-21T07:29:15.785Z,51.31
2019-04-21T07:31:46.985Z,51.12
2019-04-21T07:34:19.599Z,51.39
2019-04-21T07:36:50.899Z,50.69
2019-04-21T07:39:10.698Z,50.91
2019-04-21T07:41:38.598Z,50.92
2019-04-21T07:44:04.586Z,50.64
2019-04-21T07:46:37.175Z,49.47
2019-04-21T07:49:43.602Z,49.83
2019-04-21T07:52:33.508Z,49.13
2019-04-21T07:55:10.907Z,50.42
2019-04-21T07:57:23.786Z,47.80
2019-04-21T08:00:21.062Z,49.56
2019-04-21T08:02:29.335Z,48.47
2019-04-21T08:05:20.003Z,50.19
2019-04-21T08:07:51.912Z,49.01
2019-04-21T08:10:14.469Z,48.27
2019-04-21T08:12:41.970Z,48.08
2019-04-21T08:15:23.447Z,48.30
2019-04-21T08:17:41.413Z,47.46
2019-04-21T08:20:16.796Z,48.11
2019-04-21T08:25:15.177Z,48.81
2019-04-21T08:30:22.848Z,48.80
2019-04-21T08:35:54.813Z,48.88
2019-04-21T08:37:48.102Z,49.25
2019-04-21T08:40:26.451Z,50.31
2019-04-21T08:42:54.017Z,49.42
2019-04-21T08:47:55.279Z,50.36
2019-04-21T08:50:20.545Z,49.88
2019-04-21T08:52:57.010Z,50.73
2019-04-21T08:56:04.129Z,49.81
2019-04-21T08:58:41.382Z,50.58
2019-04-21T09:01:38.345Z,49.04
2019-04-21T09:04:11.116Z,48.88
2019-04-21T09:09:11.812Z,48.07
2019-04-21T09:11:37.614Z,47.12
2019-04-21T09:14:07.302Z,47.14
2019-04-21T09:16:35.425Z,47.15
2019-04-21T09:19:04.689Z,46.68
2019-04-21T09:21:54.585Z,45.84
2019-04-21T09:24:13.299Z,46.91
2019-04-21T09:26:34.004Z,45.08
2019-04-21T09:29:04.310Z,45.34
2019-04-21T09:31:33.823Z,45.34
2019-04-21T09:34:03.179Z,45.88
2019-04-21T09:36:41.284Z,45.35
2019-04-21T09:39:18.256Z,45.96
2019-04-21T09:41:51.182Z,45.14
2019-04-21T09:44:30.207Z,45.00
2019-04-21T09:46:56.642Z,44.27
2019-04-21T09:49:27.420Z,44.45
2019-04-21T09:51:55.245Z,44.72
2019-04-21T09:54:28.464Z,44.24
2019-04-21T09:57:01.651Z,43.46
2019-04-21T09:59:29.969Z,44.16
2019-04-21T10:02:06.543Z,44.17
2019-04-21T10:04:26.698Z,43.87
2019-04-21T10:06:56.320Z,44.02
2019-04-21T10:09:26.444Z,43.64
2019-04-21T10:11:57.023Z,43.48
2019-04-21T10:14:26.428Z,43.86
2019-04-21T10:17:29.635Z,42.80
2019-04-21T10:19:58.793Z,43.21
2019-04-21T10:22:28.857Z,41.07
2019-04-21T10:24:58.507Z,41.18
2019-04-21T10:27:27.711Z,41.43
2019-04-21T10:29:58.022Z,41.78
2019-04-21T10:32:28.195Z,41.49
2019-04-21T10:34:59.190Z,41.76
2019-04-21T10:37:42.787Z,41.24
2019-04-21T10:40:00.010Z,41.18
2019-04-21T10:42:29.143Z,40.45
2019-04-21T10:44:58.884Z,38.79
2019-04-21T10:47:29.348Z,39.54
2019-04-21T10:49:58.414Z,39.67
2019-04-21T10:52:34.765Z,40.27
2019-04-21T10:55:20.745Z,39.62
2019-04-21T10:57:34.882Z,38.78
2019-04-21T11:00:05.829Z,39.66
2019-04-21T11:02:44.621Z,39.41
2019-04-21T11:05:14.572Z,38.76
2019-04-21T11:08:01.081Z,39.48
2019-04-21T11:10:18.497Z,38.41
2019-04-21T11:12:47.837Z,38.52
2019-04-21T11:15:17.185Z,39.12
2019-04-21T11:17:47.335Z,38.77
